Time;durP1;ratioP1;P1;durP2;ratioP2;P2;SDS_P1;SDS_P2;PMS_P1;PMS_P2;Temp;Humidity;BMP_temperature;BMP_pressure;BME280_temperature;BME280_humidity;BME280_pressure;Samples;Min_cycle;Max_cycle;Signal;HPM_P1;HPM_P2
2021/10/01 00:01:57;;;;;;;0.93;0.75;;;;;;;;;;5053044;28;20036;-53
2021/10/01 00:04:23;;;;;;;3.10;1.17;;;;;;;;;;5053517;28;20421;-53
2021/10/01 00:06:49;;;;;;;1.50;0.90;;;;;;;;;;5054021;28;20033;-53
2021/10/01 00:09:15;;;;;;;1.65;1.52;;;;;;;;;;5053874;28;20504;-54
2021/10/01 00:11:43;;;;;;;2.30;1.08;;;;;;;;;;5053632;28;20046;-53
2021/10/01 00:14:09;;;;;;;3.35;1.27;;;;;;;;;;5053424;28;20090;-53
2021/10/01 00:16:35;;;;;;;4.40;1.00;;;;;;;;;;5053510;28;20171;-53
2021/10/01 00:19:01;;;;;;;2.08;1.30;;;;;;;;;;5053849;28;20025;-54
2021/10/01 00:21:27;;;;;;;2.67;1.42;;;;;;;;;;5053968;28;20159;-53
2021/10/01 00:23:53;;;;;;;5.55;1.40;;;;;;;;;;5052848;28;20067;-53
2021/10/01 00:26:19;;;;;;;1.42;1.08;;;;;;;;;;5053816;28;20017;-53
2021/10/01 00:28:45;;;;;;;1.60;1.05;;;;;;;;;;5053184;28;20040;-53
2021/10/01 00:31:10;;;;;;;5.13;1.15;;;;;;;;;;5053414;28;20021;-53
2021/10/01 00:33:36;;;;;;;3.75;1.10;;;;;;;;;;5053008;28;20028;-54
2021/10/01 00:36:03;;;;;;;0.90;0.77;;;;;;;;;;5053510;28;20053;-53
2021/10/01 00:38:29;;;;;;;3.85;1.17;;;;;;;;;;5053670;28;20025;-54
2021/10/01 00:40:55;;;;;;;4.13;1.27;;;;;;;;;;5053465;28;20103;-53
2021/10/01 00:43:21;;;;;;;4.80;1.52;;;;;;;;;;5053150;28;20439;-53
2021/10/01 00:45:47;;;;;;;5.50;1.40;;;;;;;;;;5052154;28;20051;-54
2021/10/01 00:48:13;;;;;;;3.25;1.52;;;;;;;;;;5053588;28;20036;-53
2021/10/01 00:50:39;;;;;;;4.70;1.10;;;;;;;;;;5053114;28;20029;-53
2021/10/01 00:53:05;;;;;;;1.65;1.30;;;;;;;;;;5053488;28;20340;-53
2021/10/01 00:55:32;;;;;;;1.70;1.20;;;;;;;;;;5052436;28;20052;-53
2021/10/01 00:57:58;;;;;;;9.63;1.67;;;;;;;;;;5053051;28;20028;-53
2021/10/01 01:00:27;;;;;;;3.47;1.25;;;;;;;;;;5052841;28;20470;-53
2021/10/01 01:02:58;;;;;;;4.57;1.23;;;;;;;;;;5052971;28;20371;-53
2021/10/01 01:05:29;;;;;;;2.80;1.30;;;;;;;;;;5052254;28;20589;-53
2021/10/01 01:07:58;;;;;;;3.13;1.55;;;;;;;;;;5052829;28;20035;-53
2021/10/01 01:10:33;;;;;;;1.10;0.80;;;;;;;;;;5053325;28;20039;-53
2021/10/01 01:12:59;;;;;;;1.75;1.42;;;;;;;;;;5052549;28;20095;-53
2021/10/01 01:15:30;;;;;;;3.70;1.10;;;;;;;;;;5052395;28;20384;-53
2021/10/01 01:18:05;;;;;;;1.23;1.05;;;;;;;;;;5052583;28;20116;-53
2021/10/01 01:20:37;;;;;;;0.90;0.80;;;;;;;;;;5052914;28;20021;-53
2021/10/01 01:23:12;;;;;;;2.40;1.20;;;;;;;;;;5053002;28;20032;-53
2021/10/01 01:25:38;;;;;;;6.85;1.45;;;;;;;;;;5051558;28;20083;-53
2021/10/01 01:28:10;;;;;;;3.47;1.08;;;;;;;;;;5052432;28;20033;-53
2021/10/01 01:30:40;;;;;;;1.05;0.88;;;;;;;;;;5052631;28;20021;-53
2021/10/01 01:33:07;;;;;;;6.63;1.02;;;;;;;;;;5052784;28;20068;-53
2021/10/01 01:35:35;;;;;;;1.85;1.00;;;;;;;;;;5052173;28;20029;-53
2021/10/01 01:38:09;;;;;;;1.35;0.90;;;;;;;;;;5052038;28;20025;-53
2021/10/01 01:40:36;;;;;;;1.08;0.98;;;;;;;;;;5052795;28;20079;-53
2021/10/01 01:43:03;;;;;;;2.72;1.60;;;;;;;;;;5037707;28;20025;-53
2021/10/01 01:45:29;;;;;;;4.10;1.23;;;;;;;;;;5031966;28;20030;-53
2021/10/01 01:47:56;;;;;;;5.18;1.33;;;;;;;;;;5032266;28;20018;-53
2021/10/01 01:50:22;;;;;;;2.80;1.35;;;;;;;;;;5032830;28;20053;-53
2021/10/01 01:52:51;;;;;;;1.60;1.10;;;;;;;;;;5032496;28;20025;-53
2021/10/01 01:55:17;;;;;;;2.95;1.05;;;;;;;;;;5032191;28;20108;-53
2021/10/01 01:57:53;;;;;;;1.65;0.80;;;;;;;;;;5032566;28;20025;-54
2021/10/01 02:00:20;;;;;;;4.20;1.05;;;;;;;;;;5032196;28;20029;-53
2021/10/01 02:02:48;;;;;;;2.88;1.25;;;;;;;;;;5032308;28;20435;-53
2021/10/01 02:05:14;;;;;;;2.45;1.23;;;;;;;;;;5031515;28;20032;-53
2021/10/01 02:07:41;;;;;;;2.25;1.05;;;;;;;;;;5032629;28;20025;-53
2021/10/01 02:10:07;;;;;;;1.15;0.98;;;;;;;;;;5032669;28;20072;-52
2021/10/01 02:12:34;;;;;;;4.57;1.13;;;;;;;;;;5032414;28;20093;-53
2021/10/01 02:15:00;;;;;;;2.92;1.10;;;;;;;;;;5032172;28;20025;-53
2021/10/01 02:17:27;;;;;;;3.42;1.23;;;;;;;;;;5032226;28;20036;-53
2021/10/01 02:19:56;;;;;;;1.77;0.95;;;;;;;;;;5032077;28;20025;-53
2021/10/01 02:22:22;;;;;;;2.65;1.13;;;;;;;;;;5032284;28;20457;-53
2021/10/01 02:24:48;;;;;;;4.80;1.13;;;;;;;;;;5032843;28;20117;-53
2021/10/01 02:27:17;;;;;;;1.92;1.00;;;;;;;;;;5035708;28;20028;-54
2021/10/01 02:29:53;;;;;;;2.95;1.20;;;;;;;;;;5035735;28;20033;-53
2021/10/01 02:32:34;;;;;;;3.03;1.00;;;;;;;;;;5035835;28;20025;-53
2021/10/01 02:35:02;;;;;;;1.83;1.02;;;;;;;;;;5034528;28;20474;-53
2021/10/01 02:37:28;;;;;;;2.88;1.10;;;;;;;;;;5035895;28;20021;-53
2021/10/01 02:39:55;;;;;;;1.60;1.17;;;;;;;;;;5035832;28;20087;-53
2021/10/01 02:42:22;;;;;;;2.60;1.15;;;;;;;;;;5035806;28;20028;-53
2021/10/01 02:44:49;;;;;;;6.40;1.38;;;;;;;;;;5034766;28;20113;-54
2021/10/01 02:47:15;;;;;;;1.38;1.00;;;;;;;;;;5035431;28;20439;-53
2021/10/01 02:49:41;;;;;;;1.63;0.90;;;;;;;;;;5029081;28;20220;-53
2021/10/01 02:52:14;;;;;;;1.30;0.80;;;;;;;;;;5035355;28;20037;-53
2021/10/01 02:54:43;;;;;;;1.40;1.05;;;;;;;;;;5035096;28;20028;-53
2021/10/01 02:57:12;;;;;;;4.07;1.55;;;;;;;;;;5034948;28;20124;-52
2021/10/01 02:59:41;;;;;;;3.15;1.05;;;;;;;;;;5045570;28;20032;-54
2021/10/01 03:02:09;;;;;;;1.30;1.10;;;;;;;;;;5035513;28;20060;-53
2021/10/01 03:04:36;;;;;;;2.22;1.27;;;;;;;;;;5034243;28;20025;-53
2021/10/01 03:07:03;;;;;;;2.97;1.40;;;;;;;;;;5035310;28;20029;-53
2021/10/01 03:09:30;;;;;;;3.55;1.20;;;;;;;;;;5035470;28;20044;-53
2021/10/01 03:12:00;;;;;;;1.90;1.10;;;;;;;;;;5034774;28;20018;-53
2021/10/01 03:14:27;;;;;;;2.25;1.10;;;;;;;;;;5034170;28;20036;-53
2021/10/01 03:16:54;;;;;;;2.67;1.20;;;;;;;;;;5034768;28;20051;-53
2021/10/01 03:19:22;;;;;;;6.30;1.10;;;;;;;;;;5035239;28;20026;-53
2021/10/01 03:21:58;;;;;;;2.15;0.98;;;;;;;;;;5034964;28;20029;-53
2021/10/01 03:24:25;;;;;;;2.78;1.13;;;;;;;;;;5034119;28;20053;-53
2021/10/01 03:26:51;;;;;;;1.55;1.13;;;;;;;;;;5034787;28;20032;-53
2021/10/01 03:29:18;;;;;;;8.98;1.38;;;;;;;;;;5034604;28;20041;-53
2021/10/01 03:31:45;;;;;;;1.70;1.10;;;;;;;;;;5034505;28;20039;-53
2021/10/01 03:34:11;;;;;;;4.32;1.40;;;;;;;;;;5033744;28;20447;-53
2021/10/01 03:36:37;;;;;;;1.88;1.40;;;;;;;;;;5033380;28;20083;-53
2021/10/01 03:39:04;;;;;;;3.60;1.00;;;;;;;;;;5034397;28;20029;-53
2021/10/01 03:41:30;;;;;;;3.03;1.30;;;;;;;;;;5034666;28;20049;-53
2021/10/01 03:43:56;;;;;;;7.78;1.45;;;;;;;;;;5033892;28;20344;-54
2021/10/01 03:46:23;;;;;;;3.95;0.98;;;;;;;;;;5034105;28;20057;-53
2021/10/01 03:48:49;;;;;;;1.63;1.30;;;;;;;;;;5034640;28;20034;-53
2021/10/01 03:51:15;;;;;;;4.07;1.52;;;;;;;;;;5034433;28;20017;-53
2021/10/01 03:53:42;;;;;;;5.13;1.85;;;;;;;;;;5033464;28;20025;-53
2021/10/01 03:56:16;;;;;;;2.63;1.30;;;;;;;;;;5034320;28;20028;-53
2021/10/01 03:58:42;;;;;;;2.97;1.48;;;;;;;;;;5034478;28;20352;-53
2021/10/01 04:01:08;;;;;;;1.70;1.00;;;;;;;;;;5034175;28;20029;-53
2021/10/01 04:03:34;;;;;;;2.17;1.13;;;;;;;;;;5033701;28;20029;-53
2021/10/01 04:06:00;;;;;;;1.70;1.15;;;;;;;;;;5033789;28;20451;-53
2021/10/01 04:08:26;;;;;;;1.77;1.30;;;;;;;;;;5033600;28;20156;-53
2021/10/01 04:10:52;;;;;;;5.13;1.48;;;;;;;;;;5034249;28;20029;-53
2021/10/01 04:13:18;;;;;;;1.42;1.33;;;;;;;;;;5033975;28;20029;-54
2021/10/01 04:15:44;;;;;;;3.80;1.52;;;;;;;;;;5033174;28;20025;-53
2021/10/01 04:18:10;;;;;;;1.75;1.45;;;;;;;;;;5033984;28;20017;-53
2021/10/01 04:20:38;;;;;;;1.27;0.90;;;;;;;;;;5033930;28;20079;-53
2021/10/01 04:23:05;;;;;;;3.20;1.58;;;;;;;;;;5033911;28;20025;-53
2021/10/01 04:25:31;;;;;;;1.30;1.08;;;;;;;;;;5032384;28;20087;-53
2021/10/01 04:27:57;;;;;;;2.20;1.42;;;;;;;;;;5033702;28;20034;-54
2021/10/01 04:30:23;;;;;;;6.18;1.05;;;;;;;;;;5034310;28;20057;-53
2021/10/01 04:33:36;;;;;;;4.60;1.80;;;;;;;;;;5033259;28;20447;-53
2021/10/01 04:35:36;;;;;;;2.13;1.30;;;;;;;;;;5028305;28;20037;-53
2021/10/01 04:38:01;;;;;;;0.93;0.90;;;;;;;;;;5033486;28;20018;-53
2021/10/01 04:40:28;;;;;;;2.97;1.30;;;;;;;;;;5033737;28;20035;-53
2021/10/01 04:42:54;;;;;;;3.67;1.58;;;;;;;;;;5033332;28;20028;-53
2021/10/01 04:45:20;;;;;;;3.33;1.60;;;;;;;;;;5032610;28;20029;-53
2021/10/01 04:47:46;;;;;;;2.58;1.23;;;;;;;;;;5032575;28;20088;-53
2021/10/01 04:50:12;;;;;;;1.98;1.30;;;;;;;;;;5032915;28;20472;-53
2021/10/01 04:52:38;;;;;;;5.43;1.50;;;;;;;;;;5033042;28;20029;-53
2021/10/01 04:55:04;;;;;;;3.38;1.35;;;;;;;;;;5032597;28;20570;-53
2021/10/01 04:57:30;;;;;;;1.63;0.88;;;;;;;;;;5032888;28;20105;-53
2021/10/01 04:59:56;;;;;;;3.70;1.50;;;;;;;;;;5033048;28;20164;-53
2021/10/01 05:02:22;;;;;;;2.30;1.10;;;;;;;;;;5032796;28;20431;-51
2021/10/01 05:04:51;;;;;;;1.92;1.30;;;;;;;;;;5032352;28;20021;-52
2021/10/01 05:07:19;;;;;;;2.03;1.27;;;;;;;;;;5032689;28;20037;-51
2021/10/01 05:09:46;;;;;;;5.28;1.75;;;;;;;;;;5033291;28;20041;-51
2021/10/01 05:12:12;;;;;;;2.50;1.48;;;;;;;;;;5032906;28;20025;-51
2021/10/01 05:14:38;;;;;;;2.03;1.38;;;;;;;;;;5032277;28;20030;-52
2021/10/01 05:17:04;;;;;;;2.97;1.58;;;;;;;;;;5032907;28;20101;-51
2021/10/01 05:19:30;;;;;;;4.40;1.77;;;;;;;;;;5033021;28;20033;-52
2021/10/01 05:21:56;;;;;;;2.45;1.40;;;;;;;;;;5032427;28;20056;-51
2021/10/01 05:24:22;;;;;;;5.15;1.80;;;;;;;;;;5032039;28;20053;-51
2021/10/01 05:26:48;;;;;;;6.63;3.53;;;;;;;;;;5033366;28;20438;-51
2021/10/01 05:29:14;;;;;;;7.07;2.50;;;;;;;;;;5032641;28;20037;-51
2021/10/01 05:31:40;;;;;;;6.40;2.05;;;;;;;;;;5031052;28;20022;-52
2021/10/01 05:34:06;;;;;;;6.78;2.20;;;;;;;;;;5031805;28;20065;-52
2021/10/01 05:36:33;;;;;;;5.55;1.98;;;;;;;;;;5032919;28;20025;-51
2021/10/01 05:38:59;;;;;;;6.60;2.03;;;;;;;;;;5032953;28;20320;-51
2021/10/01 05:41:25;;;;;;;4.22;1.98;;;;;;;;;;5032515;28;20432;-51
2021/10/01 05:43:51;;;;;;;4.45;2.13;;;;;;;;;;5031924;28;20079;-51
2021/10/01 05:46:18;;;;;;;6.95;2.67;;;;;;;;;;5032674;28;20579;-51
2021/10/01 05:48:49;;;;;;;4.72;2.20;;;;;;;;;;5032511;28;20047;-52
2021/10/01 05:51:15;;;;;;;5.05;2.10;;;;;;;;;;5032593;28;20394;-51
2021/10/01 05:56:13;;;;;;;3.80;1.40;;;;;;;;;;5032746;28;20281;-52
2021/10/01 05:58:40;;;;;;;4.72;2.35;;;;;;;;;;5032524;28;20029;-52
2021/10/01 06:01:07;;;;;;;8.43;2.25;;;;;;;;;;5035988;28;20049;-52
2021/10/01 06:03:33;;;;;;;9.15;2.75;;;;;;;;;;5035639;28;20407;-51
2021/10/01 06:05:59;;;;;;;5.05;2.60;;;;;;;;;;5036059;28;20018;-51
2021/10/01 06:08:26;;;;;;;5.07;2.08;;;;;;;;;;5036017;28;20022;-51
2021/10/01 06:10:52;;;;;;;7.05;2.63;;;;;;;;;;5036462;28;20025;-52
2021/10/01 06:13:18;;;;;;;4.95;2.40;;;;;;;;;;5036235;28;20451;-52
2021/10/01 06:15:44;;;;;;;4.07;2.13;;;;;;;;;;5035422;28;20026;-52
2021/10/01 06:18:10;;;;;;;3.15;2.00;;;;;;;;;;5035740;28;20025;-51
2021/10/01 06:20:37;;;;;;;9.43;2.60;;;;;;;;;;5036021;28;20489;-51
2021/10/01 06:23:03;;;;;;;4.53;2.40;;;;;;;;;;5036084;28;20026;-52
2021/10/01 06:25:29;;;;;;;7.72;2.20;;;;;;;;;;5035331;28;20025;-52
2021/10/01 06:27:55;;;;;;;5.10;1.77;;;;;;;;;;5035789;28;20128;-51
2021/10/01 06:30:21;;;;;;;3.47;1.60;;;;;;;;;;5035634;28;20037;-52
2021/10/01 06:32:47;;;;;;;3.45;1.80;;;;;;;;;;5035768;28;20049;-52
2021/10/01 06:35:13;;;;;;;6.10;1.90;;;;;;;;;;5035261;28;20056;-53
2021/10/01 06:37:39;;;;;;;3.88;1.90;;;;;;;;;;5035755;28;20044;-52
2021/10/01 06:40:07;;;;;;;6.68;2.17;;;;;;;;;;5034504;28;20477;-52
2021/10/01 06:42:33;;;;;;;7.10;2.67;;;;;;;;;;5035290;28;20036;-52
2021/10/01 06:45:03;;;;;;;2.47;1.70;;;;;;;;;;5034895;28;20475;-52
2021/10/01 06:47:47;;;;;;;2.53;1.50;;;;;;;;;;5035695;28;20030;-52
2021/10/01 08:19:49;;;;;;;11.30;4.10;;;;;;;;;;5033629;28;20176;-52
2021/10/01 08:22:15;;;;;;;18.90;6.32;;;;;;;;;;5033339;28;20435;-52
2021/10/01 08:24:41;;;;;;;20.70;7.28;;;;;;;;;;5033028;28;20030;-52
2021/10/01 08:27:08;;;;;;;15.80;8.13;;;;;;;;;;5034002;28;20108;-52
2021/10/01 08:29:34;;;;;;;20.92;7.50;;;;;;;;;;5033056;28;20191;-52
2021/10/01 08:32:01;;;;;;;10.52;4.32;;;;;;;;;;5033656;28;20398;-52
2021/10/01 08:34:31;;;;;;;16.02;7.05;;;;;;;;;;5032559;28;20059;-52
2021/10/01 08:36:57;;;;;;;29.20;7.32;;;;;;;;;;5033575;28;20021;-52
2021/10/01 08:39:23;;;;;;;8.73;4.53;;;;;;;;;;5033411;28;20033;-52
2021/10/01 08:41:49;;;;;;;42.13;9.20;;;;;;;;;;5033549;28;20032;-52
2021/10/01 08:44:16;;;;;;;9.90;5.63;;;;;;;;;;5032572;28;20436;-52
2021/10/01 08:46:43;;;;;;;19.17;5.80;;;;;;;;;;5033106;28;20025;-52
2021/10/01 08:49:10;;;;;;;10.90;4.40;;;;;;;;;;5033328;28;20076;-52
2021/10/01 08:51:36;;;;;;;7.30;2.97;;;;;;;;;;5033080;28;20029;-52
2021/10/01 08:54:02;;;;;;;8.10;3.60;;;;;;;;;;5032557;28;20017;-52
2021/10/01 08:56:28;;;;;;;10.38;4.57;;;;;;;;;;5033404;28;20079;-52
2021/10/01 08:58:54;;;;;;;9.55;3.90;;;;;;;;;;5032681;28;20018;-52
2021/10/01 09:01:21;;;;;;;8.57;4.43;;;;;;;;;;5033192;28;20083;-52
2021/10/01 09:03:47;;;;;;;8.43;4.43;;;;;;;;;;5032351;28;20025;-52
2021/10/01 09:06:16;;;;;;;6.13;2.83;;;;;;;;;;5033043;28;20043;-52
2021/10/01 09:08:50;;;;;;;8.65;3.13;;;;;;;;;;5033200;28;20113;-52
2021/10/01 09:11:16;;;;;;;4.40;2.58;;;;;;;;;;5033234;28;20030;-52
2021/10/01 09:13:42;;;;;;;8.18;3.72;;;;;;;;;;5032102;28;20025;-52
2021/10/01 09:16:10;;;;;;;9.32;3.17;;;;;;;;;;5032859;28;20029;-52
2021/10/01 09:18:38;;;;;;;10.18;3.75;;;;;;;;;;5032871;28;20117;-52
2021/10/01 09:21:12;;;;;;;8.40;3.95;;;;;;;;;;5033150;28;20074;-52
2021/10/01 09:23:46;;;;;;;8.30;4.60;;;;;;;;;;5032055;28;20026;-52
2021/10/01 09:26:17;;;;;;;7.15;2.75;;;;;;;;;;5032968;28;20114;-52
2021/10/01 09:28:44;;;;;;;5.68;2.88;;;;;;;;;;5032633;28;20239;-53
2021/10/01 09:31:28;;;;;;;9.68;4.03;;;;;;;;;;5032651;28;20355;-52
2021/10/01 09:33:54;;;;;;;6.97;4.05;;;;;;;;;;5033256;28;20083;-52
2021/10/01 09:36:20;;;;;;;8.73;3.13;;;;;;;;;;5037234;28;20057;-52
2021/10/01 09:38:46;;;;;;;9.10;4.22;;;;;;;;;;5036657;28;20493;-52
2021/10/01 09:41:17;;;;;;;8.80;3.58;;;;;;;;;;5036991;28;20029;-52
2021/10/01 09:43:43;;;;;;;6.57;2.65;;;;;;;;;;5036322;28;20027;-52
2021/10/01 09:46:12;;;;;;;10.63;4.53;;;;;;;;;;5036202;28;20079;-52
2021/10/01 09:48:39;;;;;;;10.05;2.70;;;;;;;;;;5036662;28;20037;-52
2021/10/01 09:51:08;;;;;;;9.75;4.53;;;;;;;;;;5036535;28;20037;-52
2021/10/01 09:53:44;;;;;;;9.45;3.97;;;;;;;;;;5035893;28;20083;-52
2021/10/01 09:56:37;;;;;;;5.97;3.63;;;;;;;;;;5036588;28;20116;-52
2021/10/01 09:59:07;;;;;;;5.30;2.60;;;;;;;;;;5035237;28;20033;-53
2021/10/01 10:01:33;;;;;;;3.20;2.53;;;;;;;;;;5036481;28;20049;-52
2021/10/01 10:04:12;;;;;;;6.03;2.30;;;;;;;;;;5035679;28;20028;-52
2021/10/01 10:06:42;;;;;;;7.30;3.03;;;;;;;;;;5036235;28;20455;-52
2021/10/01 10:09:08;;;;;;;5.63;2.80;;;;;;;;;;5036608;28;20132;-52
2021/10/01 10:11:39;;;;;;;14.25;2.38;;;;;;;;;;5036202;28;20064;-52
2021/10/01 10:14:08;;;;;;;4.22;2.00;;;;;;;;;;5035163;28;20084;-52
2021/10/01 10:16:34;;;;;;;4.15;2.25;;;;;;;;;;5036177;28;20424;-52
2021/10/01 10:19:01;;;;;;;4.00;1.92;;;;;;;;;;5036365;28;20528;-52
2021/10/01 10:21:27;;;;;;;2.70;1.73;;;;;;;;;;5035966;28;20021;-52
2021/10/01 10:23:55;;;;;;;6.72;2.40;;;;;;;;;;5034981;28;20109;-52
2021/10/01 10:26:21;;;;;;;5.53;1.98;;;;;;;;;;5036059;28;20036;-52
2021/10/01 10:28:47;;;;;;;4.07;2.10;;;;;;;;;;5035341;28;20397;-52
2021/10/01 10:31:14;;;;;;;5.45;2.38;;;;;;;;;;5035796;28;20443;-52
2021/10/01 10:33:42;;;;;;;5.47;2.67;;;;;;;;;;5035086;28;20443;-52
2021/10/01 10:36:26;;;;;;;5.13;2.03;;;;;;;;;;5035657;28;20033;-52
2021/10/01 10:38:53;;;;;;;4.78;2.08;;;;;;;;;;5035966;28;20017;-52
2021/10/01 10:41:26;;;;;;;3.28;2.17;;;;;;;;;;5035644;28;20032;-52
2021/10/01 10:43:53;;;;;;;6.60;2.47;;;;;;;;;;5035105;28;20029;-52
2021/10/01 10:46:45;;;;;;;5.93;1.75;;;;;;;;;;5034567;28;20188;-52
2021/10/01 10:49:21;;;;;;;5.03;2.20;;;;;;;;;;5034360;28;20437;-52
2021/10/01 10:52:00;;;;;;;10.48;2.88;;;;;;;;;;5035440;28;20095;-53
2021/10/01 10:54:28;;;;;;;2.97;1.67;;;;;;;;;;5034943;28;20053;-52
2021/10/01 10:57:12;;;;;;;3.75;2.70;;;;;;;;;;5035177;28;20443;-53
2021/10/01 10:59:39;;;;;;;2.45;1.80;;;;;;;;;;5035400;28;20029;-52
2021/10/01 11:02:29;;;;;;;3.70;2.00;;;;;;;;;;5035199;28;20375;-52
2021/10/01 11:05:14;;;;;;;2.30;1.77;;;;;;;;;;5034634;28;20025;-52
2021/10/01 11:07:58;;;;;;;2.50;1.52;;;;;;;;;;5034990;28;20029;-52
2021/10/01 11:10:41;;;;;;;5.10;1.75;;;;;;;;;;5034727;28;20474;-53
2021/10/01 11:13:22;;;;;;;2.60;1.73;;;;;;;;;;5035090;28;20021;-52
2021/10/01 11:16:07;;;;;;;4.43;1.92;;;;;;;;;;5034122;28;20040;-52
2021/10/01 11:18:33;;;;;;;6.30;1.80;;;;;;;;;;5035002;28;20036;-52
2021/10/01 11:20:59;;;;;;;6.82;1.67;;;;;;;;;;5034253;28;20025;-52
2021/10/01 11:23:26;;;;;;;82.03;5.82;;;;;;;;;;5035019;28;20030;-52
2021/10/01 11:25:53;;;;;;;2.15;1.50;;;;;;;;;;5034275;28;20028;-52
2021/10/01 11:28:31;;;;;;;3.55;1.50;;;;;;;;;;5034822;28;20036;-52
2021/10/01 11:30:57;;;;;;;2.53;1.42;;;;;;;;;;5034770;28;20068;-52
2021/10/01 11:33:23;;;;;;;6.47;1.95;;;;;;;;;;5034313;28;20490;-52
2021/10/01 11:35:52;;;;;;;3.20;1.80;;;;;;;;;;5034148;28;20026;-52
2021/10/01 11:38:26;;;;;;;7.03;1.60;;;;;;;;;;5034598;28;20038;-52
2021/10/01 11:41:06;;;;;;;1.90;1.42;;;;;;;;;;5034554;28;20099;-52
2021/10/01 11:43:32;;;;;;;2.63;1.48;;;;;;;;;;5034362;28;20025;-53
2021/10/01 11:45:58;;;;;;;1.30;1.20;;;;;;;;;;5033634;28;20125;-52
2021/10/01 11:48:32;;;;;;;2.92;1.85;;;;;;;;;;5034624;28;20109;-52
2021/10/01 11:50:58;;;;;;;4.85;1.60;;;;;;;;;;5034290;28;20044;-53
2021/10/01 11:53:25;;;;;;;4.63;1.67;;;;;;;;;;5034361;28;20021;-53
2021/10/01 11:55:56;;;;;;;2.75;1.40;;;;;;;;;;5034227;28;20025;-52
2021/10/01 11:58:23;;;;;;;1.63;1.25;;;;;;;;;;5032865;28;20371;-52
2021/10/01 12:00:49;;;;;;;2.25;1.20;;;;;;;;;;5033589;28;20470;-52
2021/10/01 12:03:16;;;;;;;6.10;1.75;;;;;;;;;;5034190;28;20439;-52
2021/10/01 12:05:46;;;;;;;2.28;1.63;;;;;;;;;;5033606;28;20076;-52
2021/10/01 12:08:12;;;;;;;2.72;1.20;;;;;;;;;;5031528;28;20295;-52
2021/10/01 12:10:46;;;;;;;4.25;1.70;;;;;;;;;;5033881;28;20406;-52
2021/10/01 12:13:13;;;;;;;3.58;1.83;;;;;;;;;;5034382;28;20033;-52
2021/10/01 12:15:42;;;;;;;3.38;1.90;;;;;;;;;;5033255;28;20017;-52
2021/10/01 12:18:25;;;;;;;2.08;1.38;;;;;;;;;;5033830;28;20033;-52
2021/10/01 12:20:52;;;;;;;3.78;1.70;;;;;;;;;;5033990;28;20037;-52
2021/10/01 12:23:19;;;;;;;4.95;1.55;;;;;;;;;;5033687;28;20115;-52
2021/10/01 12:25:45;;;;;;;2.60;1.60;;;;;;;;;;5032791;28;20451;-52
2021/10/01 12:28:11;;;;;;;3.53;1.58;;;;;;;;;;5033604;28;20036;-52
2021/10/01 12:30:37;;;;;;;2.58;1.67;;;;;;;;;;5033855;28;20026;-52
2021/10/01 12:33:03;;;;;;;12.48;2.42;;;;;;;;;;5033361;28;20023;-52
2021/10/01 12:35:29;;;;;;;5.68;2.30;;;;;;;;;;5032902;28;20100;-53
2021/10/01 12:37:55;;;;;;;4.38;2.17;;;;;;;;;;5033069;28;20415;-52
2021/10/01 12:40:21;;;;;;;8.98;1.65;;;;;;;;;;5033537;28;20025;-52
2021/10/01 12:42:51;;;;;;;4.18;1.45;;;;;;;;;;5033587;28;20388;-53
2021/10/01 12:45:18;;;;;;;6.47;2.05;;;;;;;;;;5032814;28;20017;-52
2021/10/01 12:47:49;;;;;;;52.22;5.00;;;;;;;;;;5033516;28;20038;-52
2021/10/01 12:50:19;;;;;;;3.72;1.85;;;;;;;;;;5033309;28;20029;-52
2021/10/01 12:52:45;;;;;;;;;;;;;;;;;;5033486;28;20404;-52
2021/10/01 12:55:15;;;;;;;4.47;1.60;;;;;;;;;;5032499;28;19912;-52
2021/10/01 12:57:41;;;;;;;3.03;1.67;;;;;;;;;;5033419;28;20114;-52
2021/10/01 13:00:25;;;;;;;2.50;1.63;;;;;;;;;;5032837;28;20729;-52
2021/10/01 13:02:52;;;;;;;6.60;2.25;;;;;;;;;;5032968;28;20049;-52
2021/10/01 13:05:25;;;;;;;4.35;2.33;;;;;;;;;;5032356;28;20033;-52
2021/10/01 13:07:52;;;;;;;9.10;2.53;;;;;;;;;;5033079;28;20033;-51
2021/10/01 13:10:18;;;;;;;8.43;1.92;;;;;;;;;;5032921;28;20060;-53
2021/10/01 13:12:49;;;;;;;2.75;1.80;;;;;;;;;;5032860;28;20615;-53
2021/10/01 13:15:20;;;;;;;4.80;2.13;;;;;;;;;;5032183;28;20471;-53
2021/10/01 13:18:02;;;;;;;4.43;1.75;;;;;;;;;;5032878;28;20044;-53
2021/10/01 13:20:29;;;;;;;6.60;1.52;;;;;;;;;;5032735;28;20053;-53
2021/10/01 13:23:03;;;;;;;2.42;2.17;;;;;;;;;;5032824;28;20030;-53
2021/10/01 13:25:37;;;;;;;6.75;2.08;;;;;;;;;;5032146;28;20021;-53
2021/10/01 13:28:03;;;;;;;2.85;1.83;;;;;;;;;;5032306;28;20048;-53
2021/10/01 13:30:31;;;;;;;2.88;1.50;;;;;;;;;;5032777;28;20525;-53
2021/10/01 13:32:57;;;;;;;3.88;1.80;;;;;;;;;;5031110;28;20053;-53
2021/10/01 13:35:23;;;;;;;2.05;1.65;;;;;;;;;;5032149;28;20033;-53
2021/10/01 13:37:50;;;;;;;6.25;1.98;;;;;;;;;;5032862;28;20076;-53
2021/10/01 13:40:16;;;;;;;6.50;1.55;;;;;;;;;;5032754;28;20040;-53
2021/10/01 13:42:43;;;;;;;3.08;1.83;;;;;;;;;;5032405;28;20091;-53
2021/10/01 13:45:09;;;;;;;3.00;1.95;;;;;;;;;;5032065;28;20033;-53
2021/10/01 13:47:36;;;;;;;4.78;2.25;;;;;;;;;;5033015;28;20026;-53
2021/10/01 13:50:03;;;;;;;6.35;2.60;;;;;;;;;;5032694;28;20033;-53
2021/10/01 13:52:29;;;;;;;4.93;2.20;;;;;;;;;;5032321;28;20029;-53
2021/10/01 13:54:55;;;;;;;10.15;2.67;;;;;;;;;;5031609;28;20026;-53
2021/10/01 13:57:21;;;;;;;4.78;1.90;;;;;;;;;;5032858;28;20037;-53
2021/10/01 13:59:49;;;;;;;14.63;2.03;;;;;;;;;;5032721;28;20032;-53
2021/10/01 14:02:15;;;;;;;5.88;1.92;;;;;;;;;;5032503;28;20034;-53
2021/10/01 14:04:41;;;;;;;2.15;1.13;;;;;;;;;;5038876;28;20057;-53
2021/10/01 14:07:07;;;;;;;3.40;1.80;;;;;;;;;;5043029;28;20059;-53
2021/10/01 14:09:33;;;;;;;9.18;2.30;;;;;;;;;;5039606;28;20034;-53
2021/10/01 14:11:59;;;;;;;7.53;3.30;;;;;;;;;;5041999;28;20021;-53
2021/10/01 14:14:25;;;;;;;4.68;2.58;;;;;;;;;;5041727;28;20026;-53
2021/10/01 14:16:51;;;;;;;6.28;2.63;;;;;;;;;;5040177;28;20469;-53
2021/10/01 14:19:17;;;;;;;3.25;2.03;;;;;;;;;;5041490;28;20049;-53
2021/10/01 14:21:43;;;;;;;6.03;2.15;;;;;;;;;;5048834;28;20032;-53
2021/10/01 14:24:09;;;;;;;4.15;2.50;;;;;;;;;;5055374;28;20035;-53
2021/10/01 14:26:35;;;;;;;6.28;2.60;;;;;;;;;;5055656;28;20493;-53
2021/10/01 14:29:01;;;;;;;9.75;2.13;;;;;;;;;;5055723;28;20033;-53
2021/10/01 14:31:27;;;;;;;3.78;2.10;;;;;;;;;;5056116;28;20074;-53
2021/10/01 14:33:53;;;;;;;3.72;2.10;;;;;;;;;;5055224;28;20093;-53
2021/10/01 14:36:19;;;;;;;6.90;1.95;;;;;;;;;;5055873;28;20021;-53
2021/10/01 14:38:45;;;;;;;5.85;2.35;;;;;;;;;;5055359;28;20021;-53
2021/10/01 14:41:12;;;;;;;2.55;1.77;;;;;;;;;;5055875;28;20443;-53
2021/10/01 14:43:38;;;;;;;9.80;2.65;;;;;;;;;;5054640;28;20351;-53
2021/10/01 14:46:04;;;;;;;4.70;2.00;;;;;;;;;;5055381;28;20021;-53
2021/10/01 14:48:31;;;;;;;7.20;1.55;;;;;;;;;;5055703;28;20017;-53
2021/10/01 14:50:58;;;;;;;1.65;1.35;;;;;;;;;;5055326;28;20292;-53
2021/10/01 14:53:24;;;;;;;3.03;1.60;;;;;;;;;;5055069;28;20447;-53
2021/10/01 14:55:50;;;;;;;5.85;1.95;;;;;;;;;;5042546;28;20061;-53
2021/10/01 14:58:18;;;;;;;2.55;1.90;;;;;;;;;;5035809;28;20031;-53
2021/10/01 15:00:46;;;;;;;13.30;1.83;;;;;;;;;;5035490;28;20030;-53
2021/10/01 15:03:12;;;;;;;7.80;2.00;;;;;;;;;;5035332;28;20138;-53
2021/10/01 15:05:39;;;;;;;3.33;1.75;;;;;;;;;;5034051;28;20069;-53
2021/10/01 15:08:05;;;;;;;3.72;1.85;;;;;;;;;;5035541;28;20025;-53
2021/10/01 15:10:31;;;;;;;3.33;1.67;;;;;;;;;;5034990;28;20096;-53
2021/10/01 15:12:57;;;;;;;2.40;1.40;;;;;;;;;;5035412;28;20033;-53
2021/10/01 15:15:26;;;;;;;5.90;2.30;;;;;;;;;;5034427;28;20029;-53
2021/10/01 15:17:52;;;;;;;4.03;1.90;;;;;;;;;;5035745;28;20033;-53
2021/10/01 15:20:18;;;;;;;3.08;1.73;;;;;;;;;;5034577;28;20108;-53
2021/10/01 15:22:44;;;;;;;6.50;1.88;;;;;;;;;;5035068;28;20017;-53
2021/10/01 15:25:11;;;;;;;4.53;1.15;;;;;;;;;;5034513;28;20017;-53
2021/10/01 15:27:38;;;;;;;7.03;1.80;;;;;;;;;;5034577;28;20044;-53
2021/10/01 15:30:04;;;;;;;2.95;1.48;;;;;;;;;;5035085;28;20056;-52
2021/10/01 15:32:33;;;;;;;4.03;1.75;;;;;;;;;;5034767;28;20364;-53
2021/10/01 15:34:59;;;;;;;5.65;1.88;;;;;;;;;;5034168;28;20040;-53
2021/10/01 15:37:26;;;;;;;8.45;2.38;;;;;;;;;;5034390;28;20459;-53
2021/10/01 15:39:53;;;;;;;3.35;1.95;;;;;;;;;;5034292;28;20033;-52
2021/10/01 15:42:19;;;;;;;4.47;1.55;;;;;;;;;;5034720;28;20459;-52
2021/10/01 15:44:45;;;;;;;3.95;1.80;;;;;;;;;;5034109;28;20032;-52
2021/10/01 15:47:11;;;;;;;4.45;2.20;;;;;;;;;;5034455;28;20018;-52
2021/10/01 15:49:37;;;;;;;3.42;1.98;;;;;;;;;;5034112;28;20463;-52
2021/10/01 15:52:03;;;;;;;5.40;2.03;;;;;;;;;;5034575;28;20053;-52
2021/10/01 15:54:29;;;;;;;3.45;1.70;;;;;;;;;;5033525;28;20026;-52
2021/10/01 15:56:55;;;;;;;5.60;2.20;;;;;;;;;;5034791;28;20021;-52
2021/10/01 15:59:21;;;;;;;4.57;1.80;;;;;;;;;;5034442;28;20402;-52
2021/10/01 16:01:47;;;;;;;3.63;1.67;;;;;;;;;;5032859;28;20032;-52
2021/10/01 16:04:13;;;;;;;5.20;2.00;;;;;;;;;;5033535;28;20028;-52
2021/10/01 16:06:40;;;;;;;8.25;1.90;;;;;;;;;;5034064;28;20029;-53
2021/10/01 16:09:06;;;;;;;2.22;1.70;;;;;;;;;;5034284;28;20030;-52
2021/10/01 16:11:32;;;;;;;3.90;1.98;;;;;;;;;;5033952;28;20021;-52
2021/10/01 16:13:58;;;;;;;4.55;2.03;;;;;;;;;;5033233;28;20041;-52
2021/10/01 16:16:24;;;;;;;7.10;2.20;;;;;;;;;;5033911;28;20053;-53
2021/10/01 16:18:50;;;;;;;14.05;2.28;;;;;;;;;;5034329;28;20028;-53
2021/10/01 16:21:16;;;;;;;4.13;1.83;;;;;;;;;;5034074;28;20029;-52